createdAt,value
2019-03-31T00:00:07.861Z,32.43
2019-03-31T00:02:39.487Z,31.73
2019-03-31T00:05:08.868Z,32.00
2019-03-31T00:07:38.579Z,31.50
2019-03-31T00:10:08.653Z,31.33
2019-03-31T00:12:39.065Z,32.77
2019-03-31T00:15:08.874Z,32.93
2019-03-31T00:17:38.296Z,33.23
2019-03-31T00:20:07.997Z,33.83
2019-03-31T00:22:37.470Z,31.60
2019-03-31T00:25:06.967Z,34.27
2019-03-31T00:27:36.609Z,30.53
2019-03-31T00:30:07.342Z,31.67
2019-03-31T00:32:37.039Z,33.00
2019-03-31T00:35:06.477Z,32.57
2019-03-31T00:37:35.895Z,32.87
2019-03-31T00:40:06.488Z,33.60
2019-03-31T00:42:35.950Z,35.20
2019-03-31T00:45:07.511Z,33.53
2019-03-31T00:47:37.299Z,31.80
2019-03-31T00:50:08.508Z,32.83
2019-03-31T00:52:38.252Z,34.47
2019-03-31T00:55:08.928Z,35.67
2019-03-31T00:57:38.286Z,35.97
2019-03-31T01:00:09.700Z,36.40
2019-03-31T01:02:40.755Z,36.53
2019-03-31T01:05:10.284Z,35.80
2019-03-31T01:07:39.870Z,36.60
2019-03-31T01:10:09.526Z,36.77
2019-03-31T01:12:39.107Z,36.03
2019-03-31T01:15:12.986Z,39.60
2019-03-31T01:17:44.643Z,39.17
2019-03-31T01:20:15.206Z,40.00
2019-03-31T01:22:44.633Z,39.90
2019-03-31T01:25:16.143Z,39.83
2019-03-31T01:27:45.681Z,40.90
2019-03-31T01:30:16.312Z,40.70
2019-03-31T01:32:45.875Z,42.07
2019-03-31T01:35:15.439Z,41.63
2019-03-31T01:37:44.967Z,42.17
2019-03-31T01:40:15.455Z,42.53
2019-03-31T01:42:44.815Z,43.13
2019-03-31T01:45:14.598Z,41.60
2019-03-31T01:47:43.979Z,42.83
2019-03-31T01:50:14.705Z,45.03
2019-03-31T01:52:44.235Z,44.03
2019-03-31T01:55:13.605Z,43.37
2019-03-31T01:57:43.038Z,45.07
2019-03-31T02:00:15.341Z,44.43
2019-03-31T02:02:44.837Z,44.40
2019-03-31T02:05:14.282Z,46.23
2019-03-31T02:07:43.681Z,44.83
2019-03-31T02:10:13.118Z,46.13
2019-03-31T02:12:42.489Z,45.63
2019-03-31T02:15:12.096Z,46.90
2019-03-31T02:17:41.529Z,45.40
2019-03-31T02:20:10.974Z,44.67
2019-03-31T02:22:40.438Z,47.47
2019-03-31T02:25:09.795Z,47.17
2019-03-31T02:27:39.310Z,47.03
2019-03-31T02:30:09.315Z,46.87
2019-03-31T02:32:38.736Z,50.00
2019-03-31T02:35:08.520Z,48.97
2019-03-31T02:37:38.013Z,51.13
2019-03-31T02:40:07.525Z,49.47
2019-03-31T02:42:36.984Z,50.30
2019-03-31T02:45:07.791Z,51.63
2019-03-31T02:47:37.229Z,50.27
2019-03-31T02:50:06.910Z,49.93
2019-03-31T02:52:36.360Z,51.93
2019-03-31T02:55:06.842Z,50.07
2019-03-31T02:57:36.594Z,52.13
2019-03-31T03:00:07.359Z,50.03
2019-03-31T03:02:42.663Z,54.13
2019-03-31T03:05:19.513Z,51.07
2019-03-31T03:07:46.153Z,51.40
2019-03-31T03:10:15.576Z,51.60
2019-03-31T03:12:47.288Z,49.77
2019-03-31T03:15:19.782Z,51.40
2019-03-31T03:17:49.580Z,51.27
2019-03-31T03:20:18.941Z,49.37
2019-03-31T03:22:48.394Z,51.90
2019-03-31T03:25:17.871Z,49.00
2019-03-31T03:27:47.321Z,51.40
2019-03-31T03:30:16.707Z,50.73
2019-03-31T03:33:12.726Z,48.10
2019-03-31T03:35:18.247Z,52.37
2019-03-31T03:37:48.619Z,50.23
2019-03-31T03:40:17.982Z,51.43
2019-03-31T03:42:47.354Z,50.07
2019-03-31T03:45:16.951Z,49.13
2019-03-31T03:47:46.406Z,51.37
2019-03-31T03:50:15.846Z,49.80
2019-03-31T03:52:45.728Z,52.83
2019-03-31T03:55:15.240Z,48.93
2019-03-31T03:57:44.613Z,49.57
2019-03-31T04:00:14.431Z,49.77
2019-03-31T04:02:43.873Z,47.63
2019-03-31T04:05:13.400Z,48.30
2019-03-31T04:07:43.189Z,48.90
2019-03-31T04:10:32.063Z,47.93
2019-03-31T04:13:01.531Z,49.00
2019-03-31T04:15:30.961Z,47.97
2019-03-31T04:18:00.695Z,45.60
2019-03-31T04:20:30.170Z,47.20
2019-03-31T04:22:59.601Z,47.33
2019-03-31T04:25:29.128Z,44.27
2019-03-31T04:27:58.586Z,45.80
2019-03-31T04:30:28.271Z,45.03
2019-03-31T04:32:57.868Z,42.23
2019-03-31T04:35:27.294Z,43.17
2019-03-31T04:37:56.738Z,43.87
2019-03-31T04:40:26.196Z,45.50
2019-03-31T04:42:55.631Z,46.47
2019-03-31T04:45:25.376Z,46.07
2019-03-31T04:47:54.919Z,43.33
2019-03-31T04:50:24.301Z,44.53
2019-03-31T04:52:54.026Z,46.80
2019-03-31T04:55:23.423Z,46.50
2019-03-31T04:57:52.842Z,45.97
2019-03-31T05:00:22.210Z,45.00
2019-03-31T05:02:51.900Z,44.60
2019-03-31T05:05:21.324Z,45.80
2019-03-31T05:07:50.760Z,46.33
2019-03-31T05:10:20.151Z,43.77
2019-03-31T05:12:49.595Z,44.47
2019-03-31T05:15:19.300Z,45.40
2019-03-31T05:17:49.011Z,45.90
2019-03-31T05:20:18.372Z,44.77
2019-03-31T05:22:47.812Z,48.30
2019-03-31T05:25:17.197Z,48.27
2019-03-31T05:27:46.638Z,47.13
2019-03-31T05:30:16.467Z,47.77
2019-03-31T05:32:45.930Z,47.47
2019-03-31T05:35:15.298Z,46.90
2019-03-31T05:37:50.794Z,48.93
2019-03-31T05:40:16.027Z,49.03
2019-03-31T05:42:45.462Z,50.10
2019-03-31T05:45:15.102Z,47.97
2019-03-31T05:47:44.506Z,50.63
2019-03-31T05:50:13.923Z,51.17
2019-03-31T05:52:43.372Z,48.00
2019-03-31T05:55:12.837Z,51.67
2019-03-31T05:57:42.240Z,52.13
2019-03-31T06:00:11.791Z,53.40
2019-03-31T06:02:41.253Z,49.27
2019-03-31T06:05:10.763Z,51.20
2019-03-31T06:07:40.220Z,50.93
2019-03-31T06:10:09.781Z,49.07
2019-03-31T06:12:39.211Z,50.27
2019-03-31T06:15:08.760Z,52.80
2019-03-31T06:17:38.179Z,57.07
2019-03-31T06:20:07.861Z,55.17
2019-03-31T06:22:37.553Z,53.30
2019-03-31T06:25:07.397Z,53.87
2019-03-31T06:27:36.752Z,55.00
2019-03-31T06:30:07.045Z,52.77
2019-03-31T06:32:36.525Z,55.23
2019-03-31T06:35:07.069Z,54.30
2019-03-31T06:37:36.530Z,53.37
2019-03-31T06:40:06.131Z,58.17
2019-03-31T06:42:35.566Z,54.57
2019-03-31T06:45:06.515Z,55.27
2019-03-31T06:47:35.883Z,55.63
2019-03-31T06:50:08.190Z,57.00
2019-03-31T06:52:37.816Z,57.70
2019-03-31T06:55:07.934Z,56.20
2019-03-31T06:57:37.322Z,54.13
2019-03-31T07:00:07.933Z,55.77
2019-03-31T07:02:37.366Z,58.07
2019-03-31T07:05:08.470Z,58.37
2019-03-31T07:07:37.833Z,56.97
2019-03-31T07:10:07.717Z,56.13
2019-03-31T07:12:37.328Z,54.13
2019-03-31T07:15:08.799Z,53.97
2019-03-31T07:17:38.270Z,52.73
2019-03-31T07:20:10.152Z,55.60
2019-03-31T07:22:39.608Z,52.67
2019-03-31T07:25:11.286Z,54.53
2019-03-31T07:27:41.088Z,51.17
2019-03-31T07:30:18.209Z,50.07
2019-03-31T07:32:47.823Z,48.87
2019-03-31T07:35:18.884Z,46.40
2019-03-31T07:37:48.468Z,46.23
2019-03-31T07:40:22.666Z,46.27
2019-03-31T07:42:52.111Z,48.97
2019-03-31T07:45:21.897Z,45.77
2019-03-31T07:47:51.432Z,45.23
2019-03-31T07:50:21.271Z,43.90
2019-03-31T07:52:50.701Z,41.13
2019-03-31T07:55:20.286Z,41.77
2019-03-31T07:57:49.764Z,41.07
2019-03-31T08:05:54.178Z,37.30
2019-03-31T08:08:23.656Z,40.50
2019-03-31T08:10:53.341Z,36.70
2019-03-31T08:13:22.910Z,36.97
2019-03-31T08:15:52.367Z,40.13
2019-03-31T08:18:22.670Z,34.80
2019-03-31T08:20:52.352Z,34.47
2019-03-31T08:23:21.832Z,33.73
2019-03-31T08:25:51.352Z,31.90
2019-03-31T08:28:21.377Z,34.13
2019-03-31T08:30:51.132Z,31.97
2019-03-31T08:33:20.574Z,31.97
2019-03-31T08:35:50.448Z,31.40
2019-03-31T08:38:19.886Z,31.70
2019-03-31T08:40:49.319Z,29.87
2019-03-31T08:43:18.816Z,32.47
2019-03-31T08:45:48.257Z,32.60
2019-03-31T08:48:17.970Z,31.27
2019-03-31T08:50:47.633Z,29.87
2019-03-31T08:53:17.382Z,30.23
2019-03-31T08:55:46.831Z,30.13
2019-03-31T08:58:16.320Z,32.73
2019-03-31T09:00:47.418Z,31.20
2019-03-31T09:03:16.987Z,30.60
2019-03-31T09:06:00.619Z,32.17
2019-03-31T09:08:18.909Z,34.23
2019-03-31T09:10:48.351Z,31.10
2019-03-31T09:13:17.923Z,29.00
2019-03-31T09:15:47.439Z,28.43
2019-03-31T09:18:16.924Z,28.90
2019-03-31T09:20:46.465Z,27.73
2019-03-31T09:23:15.983Z,28.43
2019-03-31T09:25:47.674Z,27.10
2019-03-31T09:28:16.709Z,26.67
2019-03-31T09:30:46.223Z,25.33
2019-03-31T09:33:15.611Z,26.03
2019-03-31T09:35:45.088Z,27.30
2019-03-31T09:38:14.606Z,25.73
2019-03-31T09:40:44.073Z,26.30
2019-03-31T09:43:13.540Z,26.17
2019-03-31T09:45:42.970Z,25.77
2019-03-31T09:48:12.450Z,24.70
2019-03-31T09:50:41.927Z,24.00
2019-03-31T09:53:11.362Z,25.07
2019-03-31T09:55:40.834Z,23.70
2019-03-31T09:58:10.614Z,24.27
2019-03-31T10:00:43.382Z,22.97
2019-03-31T10:03:12.873Z,22.37
2019-03-31T10:05:42.507Z,23.47
2019-03-31T10:08:12.291Z,21.40
2019-03-31T10:10:41.727Z,22.50
2019-03-31T10:13:11.155Z,20.50
2019-03-31T10:15:41.704Z,21.37
2019-03-31T10:18:11.162Z,21.27
2019-03-31T10:20:40.669Z,21.93
2019-03-31T10:23:10.029Z,21.63
2019-03-31T10:25:39.439Z,54.97
2019-03-31T10:28:08.941Z,25.53
2019-03-31T10:30:40.314Z,34.60
2019-03-31T10:33:09.837Z,21.97
2019-03-31T10:35:39.313Z,20.63
2019-03-31T10:38:09.103Z,21.53
2019-03-31T10:40:38.827Z,21.77
2019-03-31T10:43:08.635Z,20.70
2019-03-31T10:45:38.028Z,20.93
2019-03-31T10:48:19.508Z,19.70
2019-03-31T10:50:39.695Z,19.03
2019-03-31T10:53:09.596Z,19.87
2019-03-31T10:55:39.083Z,19.80
2019-03-31T10:58:08.497Z,20.23
2019-03-31T11:00:38.830Z,21.73
2019-03-31T11:03:08.671Z,21.70
2019-03-31T11:05:39.240Z,20.43
2019-03-31T11:08:08.719Z,19.67
2019-03-31T11:10:38.150Z,18.70
2019-03-31T11:13:07.682Z,19.13
2019-03-31T11:15:38.206Z,19.57
2019-03-31T11:18:07.636Z,19.27
2019-03-31T11:20:37.148Z,19.97
2019-03-31T11:23:17.862Z,20.37
2019-03-31T11:25:47.414Z,18.87
2019-03-31T11:28:17.295Z,19.23
2019-03-31T11:30:47.771Z,19.60
2019-03-31T11:33:18.183Z,20.50
2019-03-31T11:35:48.816Z,20.17
2019-03-31T11:38:18.429Z,19.77
2019-03-31T11:40:47.959Z,18.70
2019-03-31T11:43:17.687Z,18.57
2019-03-31T11:45:47.256Z,18.30
2019-03-31T11:48:16.828Z,18.52
2019-03-31T11:50:46.395Z,17.60
2019-03-31T11:53:15.901Z,17.10
2019-03-31T11:58:23.717Z,17.73
2019-03-31T12:00:55.196Z,16.17
2019-03-31T12:03:25.730Z,18.52
2019-03-31T12:05:55.389Z,16.77
2019-03-31T12:08:25.027Z,18.25
2019-03-31T12:10:54.564Z,18.03
2019-03-31T12:13:24.083Z,17.77
2019-03-31T12:15:53.549Z,17.02
2019-03-31T12:18:23.048Z,16.93
2019-03-31T12:20:52.576Z,17.97
2019-03-31T12:23:26.569Z,16.50
2019-03-31T12:25:56.217Z,17.48
2019-03-31T12:28:25.858Z,17.47
2019-03-31T12:30:55.680Z,17.02
2019-03-31T12:33:25.278Z,16.43
2019-03-31T12:35:54.913Z,17.47
2019-03-31T12:38:24.532Z,15.38
2019-03-31T12:40:54.130Z,15.17
2019-03-31T12:43:23.938Z,15.17
2019-03-31T12:45:53.654Z,14.60
2019-03-31T12:48:23.261Z,15.20
2019-03-31T12:50:52.868Z,16.25
2019-03-31T12:53:22.425Z,14.53
2019-03-31T12:55:59.917Z,15.70
2019-03-31T12:58:23.250Z,14.60
2019-03-31T13:00:52.797Z,14.38
2019-03-31T13:03:22.472Z,13.43
2019-03-31T13:05:51.955Z,13.80
2019-03-31T13:08:21.533Z,14.20
2019-03-31T13:10:51.070Z,13.80
2019-03-31T13:13:20.589Z,13.72
2019-03-31T13:15:50.232Z,16.70
2019-03-31T13:18:20.397Z,13.55
2019-03-31T13:20:50.064Z,13.40
2019-03-31T13:23:19.683Z,13.98
2019-03-31T13:25:49.188Z,14.65
2019-03-31T13:28:18.649Z,13.38
2019-03-31T13:30:48.213Z,15.53
2019-03-31T13:33:17.719Z,13.38
2019-03-31T13:35:47.294Z,13.13
2019-03-31T13:38:16.937Z,13.32
2019-03-31T13:40:46.520Z,14.07
2019-03-31T13:43:16.152Z,13.47
2019-03-31T13:45:45.658Z,13.25
2019-03-31T13:48:15.139Z,13.88
2019-03-31T13:50:44.631Z,14.07
2019-03-31T13:53:16.313Z,13.98
2019-03-31T13:55:45.311Z,13.75
2019-03-31T13:58:15.519Z,13.93
2019-03-31T14:00:45.732Z,13.88
2019-03-31T14:03:15.317Z,14.23
2019-03-31T14:05:44.783Z,14.10
2019-03-31T14:08:25.154Z,13.67
2019-03-31T14:10:45.505Z,14.53
2019-03-31T14:13:16.136Z,13.25
2019-03-31T14:15:45.823Z,15.00
2019-03-31T14:18:15.378Z,12.20
2019-03-31T14:20:45.432Z,13.25
2019-03-31T14:23:14.999Z,12.88
2019-03-31T14:25:44.493Z,13.60
2019-03-31T14:28:14.089Z,13.68
2019-03-31T14:30:43.961Z,13.88
2019-03-31T14:33:13.545Z,12.03
2019-03-31T14:35:43.187Z,12.95
2019-03-31T14:38:12.709Z,12.93
2019-03-31T14:40:42.276Z,13.72
2019-03-31T14:43:12.164Z,13.08
2019-03-31T14:45:41.732Z,14.03
2019-03-31T14:48:11.216Z,12.53
2019-03-31T14:50:41.072Z,11.57
2019-03-31T14:53:10.698Z,11.05
2019-03-31T14:55:40.345Z,12.55
2019-03-31T14:58:10.254Z,10.45
2019-03-31T15:00:39.844Z,10.95
2019-03-31T15:03:09.310Z,10.80
2019-03-31T15:05:39.046Z,10.80
2019-03-31T15:08:08.665Z,10.43
2019-03-31T15:10:38.221Z,10.18
2019-03-31T15:13:07.742Z,10.03
2019-03-31T15:15:37.489Z,9.38
2019-03-31T15:18:07.082Z,9.35
2019-03-31T15:20:36.602Z,9.08
2019-03-31T15:23:06.088Z,8.18
2019-03-31T15:25:35.733Z,9.07
2019-03-31T15:28:05.351Z,8.33
2019-03-31T15:30:34.921Z,8.15
2019-03-31T15:33:04.516Z,8.20
2019-03-31T15:35:37.383Z,8.45
2019-03-31T15:38:05.199Z,8.35
2019-03-31T15:40:36.069Z,7.90
2019-03-31T15:43:06.883Z,8.90
2019-03-31T15:45:36.480Z,8.40
2019-03-31T15:48:06.093Z,8.03
2019-03-31T15:50:35.764Z,6.97
2019-03-31T15:53:05.384Z,7.90
2019-03-31T15:55:34.863Z,7.20
2019-03-31T15:58:05.466Z,8.20
2019-03-31T16:00:35.185Z,7.70
2019-03-31T16:03:04.744Z,6.83
2019-03-31T16:05:34.538Z,7.85
2019-03-31T16:08:04.592Z,7.75
2019-03-31T16:10:34.263Z,7.83
2019-03-31T16:13:03.980Z,7.37
2019-03-31T16:15:33.641Z,7.80
2019-03-31T16:18:03.276Z,7.17
2019-03-31T16:20:32.984Z,6.87
2019-03-31T16:23:02.545Z,7.00
2019-03-31T16:25:34.176Z,6.67
2019-03-31T16:28:03.773Z,6.43
2019-03-31T16:30:36.196Z,6.47
2019-03-31T16:33:07.275Z,6.53
2019-03-31T16:38:34.957Z,6.13
2019-03-31T16:41:04.485Z,5.37
2019-03-31T16:43:33.979Z,6.70
2019-03-31T16:46:03.505Z,6.05
2019-03-31T16:48:33.325Z,5.93
2019-03-31T16:51:02.943Z,6.00
2019-03-31T16:53:32.377Z,6.23
2019-03-31T16:56:01.855Z,5.70
2019-03-31T16:58:31.311Z,5.43
2019-03-31T17:01:00.757Z,6.00
2019-03-31T17:03:30.310Z,5.30
2019-03-31T17:05:59.751Z,5.70
2019-03-31T17:08:29.204Z,8.95
2019-03-31T17:10:58.609Z,6.23
2019-03-31T17:13:28.045Z,5.90
2019-03-31T17:15:58.582Z,5.40
2019-03-31T17:18:28.070Z,6.20
2019-03-31T17:20:57.596Z,5.50
2019-03-31T17:23:27.245Z,5.50
2019-03-31T17:25:56.972Z,4.33
2019-03-31T17:28:26.422Z,5.00
2019-03-31T17:30:57.154Z,4.47
2019-03-31T17:33:30.159Z,5.50
2019-03-31T17:35:57.999Z,5.60
2019-03-31T17:38:27.512Z,5.03
2019-03-31T17:40:57.054Z,4.80
2019-03-31T17:43:26.528Z,4.10
2019-03-31T17:45:56.129Z,4.55
2019-03-31T17:48:25.856Z,4.33
2019-03-31T17:50:55.736Z,4.33
2019-03-31T17:53:25.383Z,5.03
2019-03-31T17:55:55.129Z,5.80
2019-03-31T17:58:24.591Z,4.87
2019-03-31T18:00:54.165Z,4.73
2019-03-31T18:03:23.601Z,4.40
2019-03-31T18:05:53.399Z,4.70
2019-03-31T18:08:22.945Z,4.70
2019-03-31T18:10:52.411Z,4.57
2019-03-31T18:13:21.851Z,4.93
2019-03-31T18:15:51.345Z,4.20
2019-03-31T18:18:20.885Z,5.27
2019-03-31T18:20:51.338Z,4.73
2019-03-31T18:23:20.837Z,5.20
2019-03-31T18:25:50.343Z,3.60
2019-03-31T18:28:20.201Z,4.17
2019-03-31T18:30:49.704Z,3.77
2019-03-31T18:33:19.432Z,4.23
2019-03-31T18:35:48.870Z,4.50
2019-03-31T18:38:18.369Z,4.00
2019-03-31T18:40:47.810Z,4.50
2019-03-31T18:43:17.340Z,5.73
2019-03-31T18:45:46.990Z,4.80
2019-03-31T18:48:16.448Z,4.47
2019-03-31T18:50:45.964Z,4.13
2019-03-31T18:53:17.233Z,4.80
2019-03-31T18:55:48.368Z,5.53
2019-03-31T18:58:35.894Z,5.80
2019-03-31T19:01:07.136Z,5.20
2019-03-31T19:03:47.122Z,5.30
2019-03-31T19:06:21.068Z,5.20
2019-03-31T19:09:00.310Z,6.37
2019-03-31T19:11:34.042Z,5.37
2019-03-31T19:14:10.944Z,5.50
2019-03-31T19:16:54.038Z,5.87
2019-03-31T19:19:25.163Z,6.43
2019-03-31T19:22:05.322Z,6.10
2019-03-31T19:24:36.486Z,5.53
2019-03-31T19:27:07.582Z,6.93
2019-03-31T19:29:51.004Z,5.60
2019-03-31T19:32:24.793Z,7.13
2019-03-31T19:34:59.149Z,7.70
2019-03-31T19:37:32.969Z,5.83
2019-03-31T19:40:13.171Z,6.90
2019-03-31T19:42:44.183Z,5.50
2019-03-31T19:45:18.265Z,5.40
2019-03-31T19:47:49.443Z,6.17
2019-03-31T19:50:21.144Z,5.80
2019-03-31T19:53:05.137Z,5.83
2019-03-31T19:56:06.642Z,6.13
2019-03-31T19:58:36.827Z,6.07
2019-03-31T20:01:10.664Z,6.10
2019-03-31T20:03:53.922Z,6.27
2019-03-31T20:06:25.003Z,7.43
2019-03-31T20:08:56.039Z,6.00
2019-03-31T20:11:27.176Z,6.50
2019-03-31T20:14:01.112Z,5.97
2019-03-31T20:16:34.980Z,7.87
2019-03-31T20:19:09.096Z,5.97
2019-03-31T20:21:42.904Z,5.60
2019-03-31T20:24:23.069Z,5.80
2019-03-31T20:26:54.563Z,6.17
2019-03-31T20:29:37.683Z,5.53
2019-03-31T20:32:17.536Z,6.00
2019-03-31T20:35:00.659Z,5.77
2019-03-31T20:37:31.889Z,5.20
2019-03-31T20:40:18.262Z,5.77
2019-03-31T20:42:50.994Z,6.60
2019-03-31T20:45:20.479Z,6.30
2019-03-31T20:47:49.921Z,5.37
2019-03-31T20:50:19.881Z,5.90
2019-03-31T20:52:49.489Z,6.00
2019-03-31T20:55:20.003Z,5.60
2019-03-31T20:57:49.558Z,5.60
2019-03-31T21:00:19.268Z,5.40
2019-03-31T21:02:48.744Z,4.80
2019-03-31T21:05:18.166Z,7.40
2019-03-31T21:07:47.941Z,6.13
2019-03-31T21:10:17.577Z,5.80
2019-03-31T21:12:47.023Z,5.27
2019-03-31T21:15:16.476Z,5.33
2019-03-31T21:17:45.944Z,5.00
2019-03-31T21:20:15.446Z,5.77
2019-03-31T21:22:44.904Z,5.10
2019-03-31T21:25:14.668Z,5.43
2019-03-31T21:27:44.094Z,4.70
2019-03-31T21:30:13.700Z,4.90
2019-03-31T21:32:43.169Z,4.50
2019-03-31T21:35:12.743Z,5.17
2019-03-31T21:37:42.460Z,4.83
2019-03-31T21:40:12.066Z,5.67
2019-03-31T21:42:41.510Z,4.90
2019-03-31T21:45:12.146Z,5.20
2019-03-31T21:47:41.997Z,5.73
2019-03-31T21:50:12.809Z,5.20
2019-03-31T21:52:42.250Z,6.27
2019-03-31T21:55:11.856Z,5.47
2019-03-31T21:57:41.297Z,4.40
2019-03-31T22:00:11.537Z,6.50
2019-03-31T22:02:41.704Z,4.80
2019-03-31T22:05:11.383Z,4.73
2019-03-31T22:07:40.863Z,5.33
2019-03-31T22:10:10.834Z,4.80
2019-03-31T22:12:40.288Z,4.20
2019-03-31T22:15:10.217Z,4.90
2019-03-31T22:17:39.679Z,4.80
2019-03-31T22:20:09.565Z,5.03
2019-03-31T22:22:39.043Z,5.13
2019-03-31T22:25:08.940Z,4.80
2019-03-31T22:27:38.745Z,3.93
2019-03-31T22:30:09.249Z,4.50
2019-03-31T22:32:38.747Z,3.83
2019-03-31T22:35:08.304Z,5.57
2019-03-31T22:37:37.786Z,5.13
2019-03-31T22:40:07.375Z,4.13
2019-03-31T22:42:36.827Z,4.77
2019-03-31T22:45:07.033Z,4.50
2019-03-31T22:47:36.450Z,3.60
2019-03-31T22:50:06.496Z,4.30
2019-03-31T22:52:35.978Z,3.73
2019-03-31T22:55:08.291Z,3.53
2019-03-31T22:57:37.767Z,3.77
2019-03-31T23:00:09.042Z,3.73
2019-03-31T23:02:40.220Z,3.47
2019-03-31T23:05:10.763Z,3.27
2019-03-31T23:07:40.415Z,3.07
2019-03-31T23:10:10.288Z,2.80
2019-03-31T23:12:39.748Z,3.30
2019-03-31T23:15:09.640Z,3.87
2019-03-31T23:17:39.076Z,2.70
2019-03-31T23:20:10.307Z,4.70
2019-03-31T23:22:40.118Z,3.37
2019-03-31T23:25:09.723Z,3.30
2019-03-31T23:27:39.229Z,3.17
2019-03-31T23:30:10.068Z,2.90
2019-03-31T23:32:39.518Z,2.77
2019-03-31T23:35:08.962Z,3.23
2019-03-31T23:37:38.457Z,3.23
2019-03-31T23:40:08.027Z,2.47
2019-03-31T23:42:37.803Z,2.27
2019-03-31T23:45:07.989Z,2.80
2019-03-31T23:47:37.830Z,2.90
2019-03-31T23:50:07.599Z,2.47
2019-03-31T23:52:37.469Z,2.20
2019-03-31T23:55:07.329Z,3.23
2019-03-31T23:57:40.724Z,3.03
